createdAt,value
2023-05-22T00:01:46.967Z,10.60
2023-05-22T00:04:14.013Z,10.70
2023-05-22T00:06:44.017Z,10.60
2023-05-22T00:09:11.272Z,10.60
2023-05-22T00:11:39.666Z,10.50
2023-05-22T00:14:06.663Z,10.60
2023-05-22T00:19:17.192Z,10.60
2023-05-22T00:21:44.994Z,10.60
2023-05-22T00:24:14.461Z,10.60
2023-05-22T00:26:41.517Z,10.50
2023-05-22T00:29:09.484Z,10.50
2023-05-22T00:31:36.881Z,10.50
2023-05-22T00:34:03.936Z,10.60
2023-05-22T00:36:31.044Z,10.60
2023-05-22T00:38:58.166Z,10.50
2023-05-22T00:41:25.562Z,10.50
2023-05-22T00:43:52.764Z,10.60
2023-05-22T00:46:21.747Z,10.50
2023-05-22T00:48:49.433Z,10.50
2023-05-22T00:51:16.704Z,10.50
2023-05-22T00:53:44.557Z,10.50
2023-05-22T00:56:12.657Z,10.50
2023-05-22T00:58:39.854Z,10.50
2023-05-22T01:01:09.726Z,10.50
2023-05-22T01:03:44.784Z,10.50
2023-05-22T01:06:18.066Z,10.40
2023-05-22T01:08:45.576Z,10.50
2023-05-22T01:11:42.104Z,10.40
2023-05-22T01:14:30.870Z,10.50
2023-05-22T01:17:34.930Z,10.40
2023-05-22T01:20:29.552Z,10.40
2023-05-22T01:23:17.977Z,10.40
2023-05-22T01:26:22.383Z,10.40
2023-05-22T01:28:55.456Z,10.40
2023-05-22T01:31:27.621Z,10.50
2023-05-22T01:34:02.108Z,10.50
2023-05-22T01:36:36.109Z,10.50
2023-05-22T01:39:06.356Z,10.50
2023-05-22T01:41:34.628Z,10.60
2023-05-22T01:44:02.639Z,10.50
2023-05-22T01:46:30.415Z,10.50
2023-05-22T01:48:58.200Z,10.50
2023-05-22T01:51:28.060Z,10.40
2023-05-22T01:54:07.730Z,10.40
2023-05-22T01:56:43.686Z,10.40
2023-05-22T01:59:22.810Z,10.50
2023-05-22T02:01:52.188Z,10.40
2023-05-22T02:04:23.272Z,10.40
2023-05-22T02:06:54.144Z,10.40
2023-05-22T02:09:23.679Z,10.40
2023-05-22T02:11:51.522Z,10.50
2023-05-22T02:14:19.979Z,10.40
2023-05-22T02:16:47.776Z,10.50
2023-05-22T02:19:15.481Z,10.60
2023-05-22T02:21:42.871Z,10.60
2023-05-22T02:24:10.629Z,10.70
2023-05-22T02:26:38.310Z,10.70
2023-05-22T02:29:05.433Z,10.70
2023-05-22T02:31:32.465Z,10.70
2023-05-22T02:33:59.553Z,10.70
2023-05-22T02:36:26.707Z,10.60
2023-05-22T02:38:55.542Z,10.60
2023-05-22T02:41:23.784Z,10.50
2023-05-22T02:43:50.800Z,10.50
2023-05-22T02:46:17.791Z,10.50
2023-05-22T02:48:45.718Z,10.50
2023-05-22T02:51:12.672Z,10.50
2023-05-22T02:53:41.524Z,10.60
2023-05-22T02:56:10.785Z,10.60
2023-05-22T02:58:38.414Z,10.60
2023-05-22T03:01:09.330Z,10.60
2023-05-22T03:03:36.781Z,10.60
2023-05-22T03:06:04.335Z,10.60
2023-05-22T03:08:32.198Z,10.60
2023-05-22T03:11:00.546Z,10.60
2023-05-22T03:13:27.499Z,10.70
2023-05-22T03:15:54.738Z,10.80
2023-05-22T03:18:21.980Z,10.80
2023-05-22T03:20:48.912Z,10.80
2023-05-22T03:23:15.872Z,10.80
2023-05-22T03:25:43.010Z,10.80
2023-05-22T03:28:10.021Z,10.70
2023-05-22T03:30:37.275Z,10.80
2023-05-22T03:33:04.541Z,10.80
2023-05-22T03:35:31.696Z,10.70
2023-05-22T03:37:58.852Z,10.80
2023-05-22T03:40:26.080Z,10.80
2023-05-22T03:42:53.285Z,10.90
2023-05-22T03:45:20.276Z,10.90
2023-05-22T03:47:47.462Z,11.00
2023-05-22T03:50:14.517Z,11.00
2023-05-22T03:52:41.453Z,11.00
2023-05-22T03:55:09.127Z,11.10
2023-05-22T03:57:36.111Z,11.10
2023-05-22T04:00:09.974Z,11.10
2023-05-22T04:02:39.191Z,11.10
2023-05-22T04:05:10.124Z,11.20
2023-05-22T04:07:37.329Z,11.20
2023-05-22T04:10:05.502Z,11.10
2023-05-22T04:12:32.561Z,11.10
2023-05-22T04:14:59.700Z,11.20
2023-05-22T04:17:32.576Z,11.20
2023-05-22T04:20:00.450Z,11.10
2023-05-22T04:22:27.926Z,11.10
2023-05-22T04:24:54.907Z,11.10
2023-05-22T04:27:22.984Z,11.00
2023-05-22T04:29:52.663Z,11.00
2023-05-22T04:32:21.817Z,10.90
2023-05-22T04:34:52.066Z,10.70
2023-05-22T04:37:20.487Z,10.60
2023-05-22T04:39:48.059Z,10.60
2023-05-22T04:42:16.188Z,10.60
2023-05-22T04:44:43.759Z,10.50
2023-05-22T04:47:11.666Z,10.30
2023-05-22T04:49:39.329Z,10.20
2023-05-22T04:52:07.331Z,10.20
2023-05-22T04:54:34.673Z,10.10
2023-05-22T04:57:04.576Z,10.10
2023-05-22T04:59:40.333Z,10.00
2023-05-22T05:02:07.598Z,9.90
2023-05-22T05:04:34.548Z,9.90
2023-05-22T05:07:02.618Z,9.90
2023-05-22T05:09:29.828Z,9.90
2023-05-22T05:11:57.009Z,9.90
2023-05-22T05:14:24.390Z,10.10
2023-05-22T05:16:52.053Z,10.10
2023-05-22T05:19:21.797Z,10.20
2023-05-22T05:21:52.555Z,10.30
2023-05-22T05:24:19.563Z,10.30
2023-05-22T05:26:47.795Z,10.30
2023-05-22T05:29:15.049Z,10.30
2023-05-22T05:31:42.468Z,10.30
2023-05-22T05:34:09.839Z,10.30
2023-05-22T05:36:37.514Z,10.20
2023-05-22T05:39:04.935Z,10.30
2023-05-22T05:41:32.109Z,10.30
2023-05-22T05:44:00.617Z,10.20
2023-05-22T05:46:27.810Z,10.20
2023-05-22T05:48:54.866Z,10.10
2023-05-22T05:51:22.388Z,10.10
2023-05-22T05:53:49.704Z,10.10
2023-05-22T05:56:16.756Z,10.00
2023-05-22T05:58:44.066Z,10.00
2023-05-22T06:01:12.118Z,10.00
2023-05-22T06:03:39.415Z,10.00
2023-05-22T06:06:07.395Z,10.00
2023-05-22T06:08:34.705Z,10.10
2023-05-22T06:11:02.313Z,10.00
2023-05-22T06:13:29.488Z,10.00
2023-05-22T06:15:58.693Z,10.00
2023-05-22T06:18:27.517Z,10.00
2023-05-22T06:20:54.564Z,10.20
2023-05-22T06:23:21.802Z,10.40
2023-05-22T06:25:48.921Z,10.50
2023-05-22T06:28:15.950Z,10.50
2023-05-22T06:30:43.094Z,10.50
2023-05-22T06:33:10.455Z,10.50
2023-05-22T06:35:37.708Z,10.50
2023-05-22T06:38:04.684Z,10.50
2023-05-22T06:40:31.868Z,10.60
2023-05-22T06:43:01.800Z,10.70
2023-05-22T06:45:28.808Z,10.60
2023-05-22T06:47:55.941Z,10.50
2023-05-22T06:50:23.047Z,10.40
2023-05-22T06:52:50.204Z,10.40
2023-05-22T06:55:17.342Z,10.50
2023-05-22T06:57:44.583Z,10.60
2023-05-22T07:00:13.155Z,10.80
2023-05-22T07:02:40.678Z,11.20
2023-05-22T07:05:07.996Z,11.40
2023-05-22T07:07:35.130Z,11.60
2023-05-22T07:10:02.133Z,11.90
2023-05-22T07:12:29.808Z,12.10
2023-05-22T07:14:58.108Z,12.40
2023-05-22T07:17:25.181Z,12.80
2023-05-22T07:19:52.183Z,13.20
2023-05-22T07:22:19.214Z,13.60
2023-05-22T07:24:47.581Z,13.70
2023-05-22T07:27:15.037Z,13.70
2023-05-22T07:29:41.979Z,13.90
2023-05-22T07:32:09.166Z,13.70
2023-05-22T07:34:36.377Z,13.70
2023-05-22T07:37:12.509Z,13.60
2023-05-22T07:39:39.524Z,13.50
2023-05-22T07:42:07.131Z,13.40
2023-05-22T07:44:34.545Z,13.60
2023-05-22T07:47:01.528Z,13.50
2023-05-22T07:49:28.533Z,13.50
2023-05-22T07:51:55.790Z,13.30
2023-05-22T07:54:22.817Z,13.20
2023-05-22T07:56:50.382Z,13.20
2023-05-22T07:59:19.731Z,13.20
2023-05-22T08:01:47.194Z,13.10
2023-05-22T08:04:14.394Z,13.00
2023-05-22T08:06:41.840Z,13.00
2023-05-22T08:09:09.609Z,13.10
2023-05-22T08:11:39.672Z,13.00
2023-05-22T08:14:07.823Z,12.90
2023-05-22T08:16:35.448Z,13.00
2023-05-22T08:19:02.896Z,13.10
2023-05-22T08:21:30.099Z,13.10
2023-05-22T08:23:57.145Z,13.00
2023-05-22T08:26:24.301Z,13.00
2023-05-22T08:28:52.460Z,13.10
2023-05-22T08:31:19.592Z,12.80
2023-05-22T08:33:46.753Z,13.00
2023-05-22T08:36:14.900Z,13.10
2023-05-22T08:38:42.012Z,13.20
2023-05-22T08:41:09.629Z,13.10
2023-05-22T08:43:37.187Z,13.10
2023-05-22T08:46:06.299Z,13.00
2023-05-22T08:48:33.779Z,13.00
2023-05-22T08:51:06.191Z,13.10
2023-05-22T08:53:37.712Z,13.20
2023-05-22T08:56:09.005Z,13.40
2023-05-22T08:58:37.828Z,13.50
2023-05-22T09:01:06.442Z,13.40
2023-05-22T09:03:35.118Z,13.00
2023-05-22T09:06:02.560Z,13.00
2023-05-22T09:08:29.618Z,13.20
2023-05-22T09:10:57.177Z,13.30
2023-05-22T09:13:29.479Z,13.40
2023-05-22T09:16:13.174Z,13.50
2023-05-22T09:18:41.428Z,13.40
2023-05-22T09:21:21.463Z,13.10
2023-05-22T09:23:59.436Z,13.10
2023-05-22T09:26:29.748Z,12.90
2023-05-22T09:29:00.360Z,12.70
2023-05-22T09:31:29.470Z,12.90
2023-05-22T09:33:56.904Z,13.00
2023-05-22T09:36:34.312Z,12.90
2023-05-22T09:39:02.450Z,12.70
2023-05-22T09:41:30.717Z,12.60
2023-05-22T09:43:58.737Z,12.70
2023-05-22T09:46:27.487Z,13.10
2023-05-22T09:48:54.974Z,13.20
2023-05-22T09:51:26.685Z,13.20
2023-05-22T09:54:02.246Z,13.40
2023-05-22T09:56:39.378Z,13.50
2023-05-22T09:59:09.902Z,13.60
2023-05-22T10:01:40.104Z,13.70
2023-05-22T10:04:12.617Z,13.80
2023-05-22T10:06:41.013Z,13.80
2023-05-22T10:09:15.868Z,13.70
2023-05-22T10:11:45.471Z,13.80
2023-05-22T10:14:13.607Z,13.90
2023-05-22T10:16:41.772Z,14.00
2023-05-22T10:19:10.024Z,14.10
2023-05-22T10:21:37.417Z,14.20
2023-05-22T10:24:06.283Z,14.30
2023-05-22T10:26:33.652Z,14.30
2023-05-22T10:29:12.266Z,14.30
2023-05-22T10:31:57.963Z,14.30
2023-05-22T10:34:34.590Z,14.20
2023-05-22T10:37:26.604Z,14.10
2023-05-22T10:40:07.647Z,14.00
2023-05-22T10:42:37.304Z,14.10
2023-05-22T10:45:07.286Z,14.10
2023-05-22T10:47:34.651Z,14.20
2023-05-22T10:50:09.952Z,14.20
2023-05-22T10:52:37.994Z,14.30
2023-05-22T10:55:10.443Z,14.60
2023-05-22T10:57:39.521Z,14.70
2023-05-22T11:00:08.107Z,14.90
2023-05-22T11:02:42.727Z,14.80
2023-05-22T11:05:21.857Z,14.70
2023-05-22T11:07:49.539Z,14.90
2023-05-22T11:10:27.056Z,14.80
2023-05-22T11:13:11.286Z,15.10
2023-05-22T11:15:45.919Z,15.10
2023-05-22T11:18:14.753Z,15.20
2023-05-22T11:20:42.313Z,15.50
2023-05-22T11:23:11.227Z,15.90
2023-05-22T11:25:40.619Z,16.00
2023-05-22T11:28:10.815Z,16.00
2023-05-22T11:30:38.980Z,16.40
2023-05-22T11:33:09.293Z,16.30
2023-05-22T11:35:36.807Z,16.30
2023-05-22T11:38:07.228Z,17.00
2023-05-22T11:40:34.426Z,17.60
2023-05-22T11:43:01.962Z,17.50
2023-05-22T11:45:29.241Z,18.10
2023-05-22T11:47:56.385Z,18.20
2023-05-22T11:50:40.337Z,18.50
2023-05-22T11:53:08.711Z,18.80
2023-05-22T11:55:36.023Z,19.10
2023-05-22T11:58:03.051Z,19.40
2023-05-22T12:00:31.586Z,19.60
2023-05-22T12:02:59.414Z,19.80
2023-05-22T12:05:26.734Z,19.60
2023-05-22T12:07:53.833Z,19.10
2023-05-22T12:10:20.995Z,18.80
2023-05-22T12:12:48.336Z,18.70
2023-05-22T12:15:20.409Z,19.30
2023-05-22T12:17:47.946Z,19.40
2023-05-22T12:20:15.001Z,19.40
2023-05-22T12:22:43.639Z,19.20
2023-05-22T12:25:25.063Z,19.10
2023-05-22T12:27:52.182Z,19.80
2023-05-22T12:30:19.794Z,20.30
2023-05-22T12:32:51.587Z,21.00
2023-05-22T12:35:19.446Z,20.60
2023-05-22T12:37:51.088Z,19.80
2023-05-22T12:40:18.656Z,19.60
2023-05-22T12:42:45.903Z,19.90
2023-05-22T12:45:14.286Z,20.40
2023-05-22T12:47:41.459Z,19.80
2023-05-22T12:50:09.186Z,20.50
2023-05-22T12:52:37.400Z,20.40
2023-05-22T12:55:04.766Z,20.00
2023-05-22T12:57:31.930Z,19.40
2023-05-22T12:59:58.962Z,19.20
2023-05-22T13:02:26.504Z,19.30
2023-05-22T13:04:53.574Z,19.80
2023-05-22T13:07:20.629Z,20.20
2023-05-22T13:09:47.633Z,19.70
2023-05-22T13:12:14.701Z,19.80
2023-05-22T13:14:41.726Z,20.20
2023-05-22T13:17:08.771Z,20.60
2023-05-22T13:19:35.894Z,21.30
2023-05-22T13:22:03.200Z,21.40
2023-05-22T13:24:30.495Z,20.90
2023-05-22T13:26:57.520Z,20.80
2023-05-22T13:29:24.571Z,20.40
2023-05-22T13:31:51.705Z,19.60
2023-05-22T13:34:18.833Z,19.30
2023-05-22T13:36:46.633Z,19.30
2023-05-22T13:39:13.713Z,19.30
2023-05-22T13:41:40.846Z,19.70
2023-05-22T13:44:07.881Z,18.90
2023-05-22T13:46:34.989Z,18.60
2023-05-22T13:49:02.268Z,19.20
2023-05-22T13:51:29.380Z,20.00
2023-05-22T13:53:56.398Z,20.40
2023-05-22T13:56:24.328Z,19.40
2023-05-22T13:58:51.330Z,19.70
2023-05-22T14:01:18.477Z,19.30
2023-05-22T14:03:45.686Z,18.70
2023-05-22T14:06:12.777Z,18.10
2023-05-22T14:08:39.777Z,17.70
2023-05-22T14:11:06.986Z,17.70
2023-05-22T14:13:35.078Z,17.80
2023-05-22T14:16:02.410Z,18.40
2023-05-22T14:18:29.385Z,18.20
2023-05-22T14:20:56.894Z,18.10
2023-05-22T14:23:24.100Z,17.60
2023-05-22T14:25:51.302Z,17.60
2023-05-22T14:28:18.471Z,18.00
2023-05-22T14:30:45.638Z,18.00
2023-05-22T14:33:12.770Z,17.20
2023-05-22T14:35:39.937Z,17.30
2023-05-22T14:38:07.078Z,17.20
2023-05-22T14:40:34.316Z,17.30
2023-05-22T14:43:01.319Z,17.30
2023-05-22T14:45:28.281Z,17.20
2023-05-22T14:47:55.627Z,17.20
2023-05-22T14:50:22.918Z,17.10
2023-05-22T14:52:50.380Z,17.30
2023-05-22T14:55:18.006Z,17.40
2023-05-22T14:57:45.075Z,17.60
2023-05-22T15:00:13.049Z,17.60
2023-05-22T15:02:41.218Z,17.50
2023-05-22T15:05:08.830Z,17.20
2023-05-22T15:07:43.874Z,16.70
2023-05-22T15:10:12.566Z,16.60
2023-05-22T15:12:39.956Z,16.40
2023-05-22T15:15:07.476Z,16.50
2023-05-22T15:17:34.493Z,16.40
2023-05-22T15:20:01.614Z,16.50
2023-05-22T15:22:29.881Z,16.40
2023-05-22T15:25:12.004Z,16.50
2023-05-22T15:27:39.990Z,16.50
2023-05-22T15:30:09.830Z,16.30
2023-05-22T15:32:37.675Z,16.00
2023-05-22T15:35:05.936Z,15.70
2023-05-22T15:37:34.264Z,15.40
2023-05-22T15:40:03.832Z,15.70
2023-05-22T15:42:31.116Z,16.20
2023-05-22T15:44:59.912Z,16.40
2023-05-22T15:47:27.114Z,16.60
2023-05-22T15:49:54.237Z,16.70
2023-05-22T15:52:23.486Z,16.80
2023-05-22T15:54:50.615Z,16.60
2023-05-22T15:57:17.972Z,16.10
2023-05-22T15:59:47.531Z,15.80
2023-05-22T16:02:14.773Z,16.10
2023-05-22T16:04:41.900Z,16.20
2023-05-22T16:07:08.840Z,16.10
2023-05-22T16:09:36.348Z,16.20
2023-05-22T16:12:03.995Z,16.30
2023-05-22T16:14:31.899Z,16.30
2023-05-22T16:16:59.038Z,16.10
2023-05-22T16:19:29.143Z,16.10
2023-05-22T16:21:56.572Z,16.50
2023-05-22T16:24:24.220Z,16.30
2023-05-22T16:26:51.389Z,15.90
2023-05-22T16:29:22.584Z,15.50
2023-05-22T16:31:50.002Z,15.20
2023-05-22T16:34:17.803Z,15.50
2023-05-22T16:36:44.986Z,15.70
2023-05-22T16:39:12.090Z,15.80
2023-05-22T16:41:39.323Z,16.00
2023-05-22T16:44:06.479Z,16.00
2023-05-22T16:46:33.677Z,15.80
2023-05-22T16:49:00.858Z,15.90
2023-05-22T16:51:27.952Z,15.90
2023-05-22T16:53:54.931Z,16.00
2023-05-22T16:56:23.061Z,15.90
2023-05-22T16:58:50.092Z,15.90
2023-05-22T17:01:17.258Z,15.60
2023-05-22T17:03:45.242Z,15.50
2023-05-22T17:06:12.376Z,15.40
2023-05-22T17:08:39.534Z,15.50
2023-05-22T17:11:06.604Z,15.50
2023-05-22T17:13:33.608Z,15.40
2023-05-22T17:16:00.768Z,15.30
2023-05-22T17:18:28.359Z,15.30
2023-05-22T17:20:55.890Z,15.20
2023-05-22T17:23:22.922Z,15.10
2023-05-22T17:25:50.838Z,15.00
2023-05-22T17:28:17.871Z,14.90
2023-05-22T17:30:46.195Z,14.80
2023-05-22T17:33:14.102Z,14.70
2023-05-22T17:35:41.860Z,14.60
2023-05-22T17:38:08.885Z,14.50
2023-05-22T17:40:44.997Z,14.50
2023-05-22T17:43:13.182Z,14.40
2023-05-22T17:45:40.435Z,14.40
2023-05-22T17:48:08.179Z,14.30
2023-05-22T17:50:35.429Z,14.30
2023-05-22T17:53:02.493Z,14.10
2023-05-22T17:55:29.518Z,14.10
2023-05-22T17:57:56.721Z,14.00
2023-05-22T18:00:24.046Z,14.00
2023-05-22T18:02:51.132Z,14.00
2023-05-22T18:05:18.252Z,14.10
2023-05-22T18:07:45.270Z,14.10
2023-05-22T18:10:12.278Z,14.10
2023-05-22T18:12:39.396Z,14.20
2023-05-22T18:15:09.721Z,14.20
2023-05-22T18:17:36.992Z,14.20
2023-05-22T18:20:07.454Z,14.20
2023-05-22T18:22:38.703Z,14.10
2023-05-22T18:25:07.336Z,14.30
2023-05-22T18:27:35.509Z,14.40
2023-05-22T18:30:03.886Z,14.30
2023-05-22T18:32:31.432Z,14.30
2023-05-22T18:35:04.761Z,14.20
2023-05-22T18:37:32.466Z,14.10
2023-05-22T18:39:59.532Z,14.10
2023-05-22T18:42:26.528Z,14.00
2023-05-22T18:44:53.700Z,13.90
2023-05-22T18:47:20.658Z,13.90
2023-05-22T18:49:47.681Z,13.90
2023-05-22T18:52:14.906Z,13.70
2023-05-22T18:54:41.974Z,13.60
2023-05-22T18:57:09.007Z,13.60
2023-05-22T18:59:37.475Z,13.50
2023-05-22T19:02:04.695Z,13.40
2023-05-22T19:04:31.774Z,13.30
2023-05-22T19:06:59.183Z,13.10
2023-05-22T19:09:26.216Z,13.00
2023-05-22T19:11:53.216Z,12.80
2023-05-22T19:14:20.386Z,12.90
2023-05-22T19:16:47.366Z,12.90
2023-05-22T19:19:15.190Z,13.00
2023-05-22T19:21:42.398Z,12.80
2023-05-22T19:24:09.549Z,12.70
2023-05-22T19:26:36.580Z,12.70
2023-05-22T19:29:03.614Z,12.80
2023-05-22T19:31:30.899Z,12.80
2023-05-22T19:33:57.963Z,12.80
2023-05-22T19:36:25.037Z,12.70
2023-05-22T19:38:53.694Z,12.60
2023-05-22T19:41:21.714Z,12.40
2023-05-22T19:43:48.826Z,12.10
2023-05-22T19:46:15.797Z,11.90
2023-05-22T19:48:42.815Z,11.90
2023-05-22T19:51:09.856Z,11.80
2023-05-22T19:53:37.148Z,11.80
2023-05-22T19:56:04.263Z,11.80
2023-05-22T19:58:31.494Z,11.70
2023-05-22T20:00:58.665Z,11.50
2023-05-22T20:03:26.520Z,11.40
2023-05-22T20:05:54.057Z,11.30
2023-05-22T20:08:25.713Z,11.20
2023-05-22T20:10:52.860Z,11.10
2023-05-22T20:13:19.889Z,11.00
2023-05-22T20:15:51.543Z,11.00
2023-05-22T20:18:18.685Z,11.00
2023-05-22T20:20:45.852Z,10.80
2023-05-22T20:23:12.834Z,10.70
2023-05-22T20:25:40.068Z,10.70
2023-05-22T20:28:07.314Z,10.70
2023-05-22T20:30:34.270Z,10.60
2023-05-22T20:33:01.298Z,10.60
2023-05-22T20:35:30.582Z,10.50
2023-05-22T20:38:03.213Z,10.50
2023-05-22T20:40:32.538Z,10.40
2023-05-22T20:43:02.497Z,10.30
2023-05-22T20:45:30.867Z,10.30
2023-05-22T20:47:58.056Z,10.30
2023-05-22T20:50:25.187Z,10.30
2023-05-22T20:52:52.867Z,10.20
2023-05-22T20:55:19.858Z,10.20
2023-05-22T20:57:47.069Z,10.10
2023-05-22T21:00:14.488Z,10.00
2023-05-22T21:02:41.679Z,9.90
2023-05-22T21:05:09.172Z,9.90
2023-05-22T21:07:36.252Z,9.80
2023-05-22T21:10:03.702Z,9.80
2023-05-22T21:12:30.710Z,9.70
2023-05-22T21:14:57.688Z,9.80
2023-05-22T21:17:26.146Z,9.70
2023-05-22T21:19:53.441Z,9.70
2023-05-22T21:22:20.745Z,9.60
2023-05-22T21:24:48.216Z,9.50
2023-05-22T21:27:15.464Z,9.50
2023-05-22T21:29:42.462Z,9.50
2023-05-22T21:32:09.527Z,9.50
2023-05-22T21:34:36.562Z,9.50
2023-05-22T21:37:03.806Z,9.50
2023-05-22T21:39:30.768Z,9.50
2023-05-22T21:41:57.868Z,9.50
2023-05-22T21:44:24.967Z,9.60
2023-05-22T21:46:51.946Z,9.70
2023-05-22T21:49:18.931Z,9.60
2023-05-22T21:51:45.898Z,9.40
2023-05-22T21:54:12.895Z,9.40
2023-05-22T21:56:39.900Z,9.40
2023-05-22T21:59:07.172Z,9.30
2023-05-22T22:01:34.516Z,9.20
2023-05-22T22:04:01.628Z,9.10
2023-05-22T22:06:28.928Z,9.00
2023-05-22T22:08:59.131Z,9.10
2023-05-22T22:11:26.689Z,9.20
2023-05-22T22:13:54.196Z,9.20
2023-05-22T22:16:22.555Z,9.20
2023-05-22T22:18:50.786Z,9.10
2023-05-22T22:21:18.098Z,9.00
2023-05-22T22:23:45.108Z,8.90
2023-05-22T22:26:15.093Z,8.70
2023-05-22T22:28:42.323Z,8.60
2023-05-22T22:31:09.312Z,8.60
2023-05-22T22:33:36.264Z,8.70
2023-05-22T22:36:03.822Z,8.70
2023-05-22T22:38:35.377Z,8.60
2023-05-22T22:41:04.903Z,8.60
2023-05-22T22:43:31.863Z,8.60
2023-05-22T22:45:58.886Z,8.60
2023-05-22T22:48:26.118Z,8.60
2023-05-22T22:50:53.483Z,8.60
2023-05-22T22:53:20.598Z,8.50
2023-05-22T22:55:48.870Z,8.50
2023-05-22T22:58:18.843Z,8.60
2023-05-22T23:00:46.058Z,8.60
2023-05-22T23:03:13.040Z,8.60
2023-05-22T23:05:40.723Z,8.50
2023-05-22T23:08:07.983Z,8.40
2023-05-22T23:10:34.925Z,8.50
2023-05-22T23:13:01.930Z,8.30
2023-05-22T23:15:29.099Z,8.20
2023-05-22T23:17:56.100Z,8.20
2023-05-22T23:20:23.168Z,8.20
2023-05-22T23:22:50.219Z,8.20
2023-05-22T23:25:17.240Z,8.20
2023-05-22T23:27:44.348Z,8.10
2023-05-22T23:30:11.754Z,8.10
2023-05-22T23:32:38.726Z,8.00
2023-05-22T23:35:06.215Z,8.00
2023-05-22T23:37:33.197Z,8.10
2023-05-22T23:40:00.279Z,8.20
2023-05-22T23:42:27.246Z,8.30
2023-05-22T23:44:54.224Z,8.40
2023-05-22T23:47:21.611Z,8.30
2023-05-22T23:49:48.757Z,8.30
2023-05-22T23:52:16.184Z,8.20
2023-05-22T23:54:43.223Z,8.20
2023-05-22T23:57:10.605Z,8.10
2023-05-22T23:59:37.670Z,8.00
